sensor_id;sensor_type;location;lat;lon;timestamp;P1;durP1;ratioP1;P2;durP2;ratioP2
72156;SDS011;60035;52.122;5.406;2022-11-20T00:03:32;21.60;;;9.63;;
72156;SDS011;60035;52.122;5.406;2022-11-20T00:06:00;21.02;;;8.75;;
72156;SDS011;60035;52.122;5.406;2022-11-20T00:08:27;16.52;;;7.63;;
72156;SDS011;60035;52.122;5.406;2022-11-20T00:10:53;18.42;;;8.63;;
72156;SDS011;60035;52.122;5.406;2022-11-20T00:13:20;18.35;;;8.35;;
72156;SDS011;60035;52.122;5.406;2022-11-20T00:15:46;14.43;;;6.88;;
72156;SDS011;60035;52.122;5.406;2022-11-20T00:18:13;19.67;;;7.65;;
72156;SDS011;60035;52.122;5.406;2022-11-20T00:20:41;18.25;;;7.63;;
72156;SDS011;60035;52.122;5.406;2022-11-20T00:23:08;20.65;;;9.02;;
72156;SDS011;60035;52.122;5.406;2022-11-20T00:25:34;19.52;;;9.20;;
72156;SDS011;60035;52.122;5.406;2022-11-20T00:28:01;21.15;;;8.90;;
72156;SDS011;60035;52.122;5.406;2022-11-20T00:30:28;21.20;;;8.80;;
72156;SDS011;60035;52.122;5.406;2022-11-20T00:32:56;22.15;;;8.52;;
72156;SDS011;60035;52.122;5.406;2022-11-20T00:35:23;18.73;;;7.22;;
72156;SDS011;60035;52.122;5.406;2022-11-20T00:37:52;15.95;;;7.30;;
72156;SDS011;60035;52.122;5.406;2022-11-20T00:40:18;15.93;;;7.43;;
72156;SDS011;60035;52.122;5.406;2022-11-20T00:42:45;19.05;;;7.85;;
72156;SDS011;60035;52.122;5.406;2022-11-20T00:45:11;16.58;;;6.95;;
72156;SDS011;60035;52.122;5.406;2022-11-20T00:47:38;19.08;;;8.48;;
72156;SDS011;60035;52.122;5.406;2022-11-20T00:50:05;17.50;;;8.23;;
72156;SDS011;60035;52.122;5.406;2022-11-20T00:52:31;19.42;;;8.63;;
72156;SDS011;60035;52.122;5.406;2022-11-20T00:54:58;20.00;;;9.52;;
72156;SDS011;60035;52.122;5.406;2022-11-20T00:57:24;23.83;;;9.65;;
72156;SDS011;60035;52.122;5.406;2022-11-20T00:59:50;21.95;;;9.65;;
72156;SDS011;60035;52.122;5.406;2022-11-20T01:02:17;20.23;;;9.52;;
72156;SDS011;60035;52.122;5.406;2022-11-20T01:04:43;22.23;;;9.65;;
72156;SDS011;60035;52.122;5.406;2022-11-20T01:07:10;24.25;;;10.15;;
72156;SDS011;60035;52.122;5.406;2022-11-20T01:09:37;21.13;;;9.25;;
72156;SDS011;60035;52.122;5.406;2022-11-20T01:12:04;22.30;;;10.48;;
72156;SDS011;60035;52.122;5.406;2022-11-20T01:14:30;18.95;;;9.50;;
72156;SDS011;60035;52.122;5.406;2022-11-20T01:16:57;21.17;;;9.93;;
72156;SDS011;60035;52.122;5.406;2022-11-20T01:19:23;20.45;;;8.80;;
72156;SDS011;60035;52.122;5.406;2022-11-20T01:21:52;21.92;;;9.75;;
72156;SDS011;60035;52.122;5.406;2022-11-20T01:24:21;23.15;;;10.63;;
72156;SDS011;60035;52.122;5.406;2022-11-20T01:26:48;21.70;;;10.15;;
72156;SDS011;60035;52.122;5.406;2022-11-20T01:29:17;20.60;;;10.25;;
72156;SDS011;60035;52.122;5.406;2022-11-20T01:31:47;18.92;;;8.85;;
72156;SDS011;60035;52.122;5.406;2022-11-20T01:34:15;19.35;;;9.73;;
72156;SDS011;60035;52.122;5.406;2022-11-20T01:36:43;17.67;;;8.02;;
72156;SDS011;60035;52.122;5.406;2022-11-20T01:39:12;19.77;;;9.82;;
72156;SDS011;60035;52.122;5.406;2022-11-20T01:41:41;19.15;;;9.43;;
72156;SDS011;60035;52.122;5.406;2022-11-20T01:47:20;17.92;;;8.85;;
72156;SDS011;60035;52.122;5.406;2022-11-20T01:52:45;19.92;;;9.65;;
72156;SDS011;60035;52.122;5.406;2022-11-20T01:55:24;17.95;;;8.20;;
72156;SDS011;60035;52.122;5.406;2022-11-20T01:57:54;19.25;;;9.25;;
72156;SDS011;60035;52.122;5.406;2022-11-20T02:00:21;16.20;;;8.25;;
72156;SDS011;60035;52.122;5.406;2022-11-20T02:02:50;22.63;;;8.88;;
72156;SDS011;60035;52.122;5.406;2022-11-20T02:05:32;18.63;;;8.18;;
72156;SDS011;60035;52.122;5.406;2022-11-20T02:08:03;16.77;;;9.10;;
72156;SDS011;60035;52.122;5.406;2022-11-20T02:10:32;18.10;;;8.18;;
72156;SDS011;60035;52.122;5.406;2022-11-20T02:12:59;16.70;;;9.02;;
72156;SDS011;60035;52.122;5.406;2022-11-20T02:15:44;19.60;;;7.72;;
72156;SDS011;60035;52.122;5.406;2022-11-20T02:18:13;16.85;;;8.13;;
72156;SDS011;60035;52.122;5.406;2022-11-20T02:20:42;19.42;;;8.05;;
72156;SDS011;60035;52.122;5.406;2022-11-20T02:23:23;18.25;;;7.80;;
72156;SDS011;60035;52.122;5.406;2022-11-20T02:25:53;17.63;;;8.00;;
72156;SDS011;60035;52.122;5.406;2022-11-20T02:28:22;18.27;;;8.60;;
72156;SDS011;60035;52.122;5.406;2022-11-20T02:30:49;16.85;;;7.22;;
72156;SDS011;60035;52.122;5.406;2022-11-20T02:33:15;16.33;;;6.25;;
72156;SDS011;60035;52.122;5.406;2022-11-20T02:35:43;14.98;;;7.03;;
72156;SDS011;60035;52.122;5.406;2022-11-20T02:38:11;17.98;;;7.20;;
72156;SDS011;60035;52.122;5.406;2022-11-20T02:40:38;15.25;;;7.03;;
72156;SDS011;60035;52.122;5.406;2022-11-20T02:43:05;16.15;;;6.97;;
72156;SDS011;60035;52.122;5.406;2022-11-20T02:45:32;17.90;;;6.82;;
72156;SDS011;60035;52.122;5.406;2022-11-20T02:47:58;16.73;;;7.30;;
72156;SDS011;60035;52.122;5.406;2022-11-20T02:50:25;18.40;;;7.40;;
72156;SDS011;60035;52.122;5.406;2022-11-20T02:52:51;18.63;;;8.05;;
72156;SDS011;60035;52.122;5.406;2022-11-20T02:55:21;19.20;;;7.82;;
72156;SDS011;60035;52.122;5.406;2022-11-20T02:57:47;13.90;;;6.35;;
72156;SDS011;60035;52.122;5.406;2022-11-20T03:00:14;16.20;;;7.28;;
72156;SDS011;60035;52.122;5.406;2022-11-20T03:02:40;19.65;;;7.93;;
72156;SDS011;60035;52.122;5.406;2022-11-20T03:05:08;20.73;;;8.63;;
72156;SDS011;60035;52.122;5.406;2022-11-20T03:07:35;16.77;;;7.90;;
72156;SDS011;60035;52.122;5.406;2022-11-20T03:10:01;20.73;;;8.68;;
72156;SDS011;60035;52.122;5.406;2022-11-20T03:12:28;17.38;;;8.50;;
72156;SDS011;60035;52.122;5.406;2022-11-20T03:14:54;19.30;;;9.10;;
72156;SDS011;60035;52.122;5.406;2022-11-20T03:17:21;19.08;;;9.20;;
72156;SDS011;60035;52.122;5.406;2022-11-20T03:19:47;15.93;;;7.13;;
72156;SDS011;60035;52.122;5.406;2022-11-20T03:22:14;19.48;;;8.27;;
72156;SDS011;60035;52.122;5.406;2022-11-20T03:24:41;19.83;;;8.30;;
72156;SDS011;60035;52.122;5.406;2022-11-20T03:27:07;19.27;;;8.90;;
72156;SDS011;60035;52.122;5.406;2022-11-20T03:29:37;16.85;;;7.45;;
72156;SDS011;60035;52.122;5.406;2022-11-20T03:32:03;19.70;;;8.23;;
72156;SDS011;60035;52.122;5.406;2022-11-20T03:34:30;18.88;;;8.23;;
72156;SDS011;60035;52.122;5.406;2022-11-20T03:36:56;20.13;;;7.95;;
72156;SDS011;60035;52.122;5.406;2022-11-20T03:39:23;17.48;;;8.02;;
72156;SDS011;60035;52.122;5.406;2022-11-20T03:41:50;16.20;;;7.88;;
72156;SDS011;60035;52.122;5.406;2022-11-20T03:44:16;17.25;;;7.97;;
72156;SDS011;60035;52.122;5.406;2022-11-20T03:46:43;19.23;;;9.15;;
72156;SDS011;60035;52.122;5.406;2022-11-20T03:49:09;20.17;;;7.70;;
72156;SDS011;60035;52.122;5.406;2022-11-20T03:51:36;17.67;;;7.88;;
72156;SDS011;60035;52.122;5.406;2022-11-20T03:54:04;20.30;;;9.00;;
72156;SDS011;60035;52.122;5.406;2022-11-20T03:56:33;20.83;;;7.40;;
72156;SDS011;60035;52.122;5.406;2022-11-20T03:59:02;14.55;;;6.93;;
72156;SDS011;60035;52.122;5.406;2022-11-20T04:01:30;17.25;;;5.97;;
72156;SDS011;60035;52.122;5.406;2022-11-20T04:03:58;14.55;;;6.60;;
72156;SDS011;60035;52.122;5.406;2022-11-20T04:06:27;17.90;;;7.32;;
72156;SDS011;60035;52.122;5.406;2022-11-20T04:08:55;16.73;;;8.13;;
72156;SDS011;60035;52.122;5.406;2022-11-20T04:11:24;16.92;;;6.78;;
72156;SDS011;60035;52.122;5.406;2022-11-20T04:13:53;17.98;;;7.30;;
72156;SDS011;60035;52.122;5.406;2022-11-20T04:16:21;18.42;;;7.50;;
72156;SDS011;60035;52.122;5.406;2022-11-20T04:18:52;14.93;;;7.20;;
72156;SDS011;60035;52.122;5.406;2022-11-20T04:21:20;18.63;;;7.40;;
72156;SDS011;60035;52.122;5.406;2022-11-20T04:23:46;15.05;;;7.18;;
72156;SDS011;60035;52.122;5.406;2022-11-20T04:26:13;20.80;;;7.82;;
72156;SDS011;60035;52.122;5.406;2022-11-20T04:28:40;15.93;;;7.47;;
72156;SDS011;60035;52.122;5.406;2022-11-20T04:31:08;18.63;;;7.97;;
72156;SDS011;60035;52.122;5.406;2022-11-20T04:33:37;16.20;;;7.93;;
72156;SDS011;60035;52.122;5.406;2022-11-20T04:36:05;17.88;;;8.15;;
72156;SDS011;60035;52.122;5.406;2022-11-20T04:38:33;15.88;;;6.95;;
72156;SDS011;60035;52.122;5.406;2022-11-20T04:41:00;15.73;;;7.10;;
72156;SDS011;60035;52.122;5.406;2022-11-20T04:43:29;14.70;;;7.15;;
72156;SDS011;60035;52.122;5.406;2022-11-20T04:45:56;16.73;;;8.20;;
72156;SDS011;60035;52.122;5.406;2022-11-20T04:48:25;15.48;;;7.32;;
72156;SDS011;60035;52.122;5.406;2022-11-20T04:50:52;17.08;;;7.00;;
72156;SDS011;60035;52.122;5.406;2022-11-20T04:53:20;18.25;;;7.82;;
72156;SDS011;60035;52.122;5.406;2022-11-20T04:55:47;16.30;;;8.05;;
72156;SDS011;60035;52.122;5.406;2022-11-20T04:58:14;17.42;;;7.47;;
72156;SDS011;60035;52.122;5.406;2022-11-20T05:00:41;16.23;;;8.27;;
72156;SDS011;60035;52.122;5.406;2022-11-20T05:03:07;16.55;;;7.65;;
72156;SDS011;60035;52.122;5.406;2022-11-20T05:05:34;16.45;;;7.57;;
72156;SDS011;60035;52.122;5.406;2022-11-20T05:08:01;16.30;;;6.90;;
72156;SDS011;60035;52.122;5.406;2022-11-20T05:10:28;17.02;;;7.38;;
72156;SDS011;60035;52.122;5.406;2022-11-20T05:12:56;18.92;;;8.10;;
72156;SDS011;60035;52.122;5.406;2022-11-20T05:15:23;17.88;;;7.68;;
72156;SDS011;60035;52.122;5.406;2022-11-20T05:17:50;17.30;;;7.75;;
72156;SDS011;60035;52.122;5.406;2022-11-20T05:20:18;18.02;;;8.15;;
72156;SDS011;60035;52.122;5.406;2022-11-20T05:22:45;15.60;;;7.25;;
72156;SDS011;60035;52.122;5.406;2022-11-20T05:25:12;14.65;;;6.50;;
72156;SDS011;60035;52.122;5.406;2022-11-20T05:27:38;15.48;;;7.20;;
72156;SDS011;60035;52.122;5.406;2022-11-20T05:30:05;15.23;;;7.03;;
72156;SDS011;60035;52.122;5.406;2022-11-20T05:32:32;17.73;;;7.03;;
72156;SDS011;60035;52.122;5.406;2022-11-20T05:34:59;17.80;;;7.80;;
72156;SDS011;60035;52.122;5.406;2022-11-20T05:37:26;15.82;;;6.80;;
72156;SDS011;60035;52.122;5.406;2022-11-20T05:39:52;18.38;;;7.15;;
72156;SDS011;60035;52.122;5.406;2022-11-20T05:42:18;17.50;;;7.07;;
72156;SDS011;60035;52.122;5.406;2022-11-20T05:44:58;17.08;;;7.28;;
72156;SDS011;60035;52.122;5.406;2022-11-20T05:47:30;16.27;;;7.22;;
72156;SDS011;60035;52.122;5.406;2022-11-20T05:49:59;19.48;;;7.57;;
72156;SDS011;60035;52.122;5.406;2022-11-20T05:52:29;17.75;;;8.35;;
72156;SDS011;60035;52.122;5.406;2022-11-20T05:54:56;16.90;;;8.13;;
72156;SDS011;60035;52.122;5.406;2022-11-20T05:57:23;17.45;;;6.95;;
72156;SDS011;60035;52.122;5.406;2022-11-20T05:59:49;15.98;;;6.75;;
72156;SDS011;60035;52.122;5.406;2022-11-20T06:02:16;17.55;;;7.30;;
72156;SDS011;60035;52.122;5.406;2022-11-20T06:04:42;16.55;;;7.00;;
72156;SDS011;60035;52.122;5.406;2022-11-20T06:07:09;13.95;;;6.15;;
72156;SDS011;60035;52.122;5.406;2022-11-20T06:09:36;16.27;;;7.10;;
72156;SDS011;60035;52.122;5.406;2022-11-20T06:12:03;15.82;;;7.53;;
72156;SDS011;60035;52.122;5.406;2022-11-20T06:14:29;14.85;;;6.97;;
72156;SDS011;60035;52.122;5.406;2022-11-20T06:16:56;12.95;;;6.10;;
72156;SDS011;60035;52.122;5.406;2022-11-20T06:19:22;16.42;;;7.13;;
72156;SDS011;60035;52.122;5.406;2022-11-20T06:21:49;15.40;;;7.03;;
72156;SDS011;60035;52.122;5.406;2022-11-20T06:24:16;16.42;;;6.43;;
72156;SDS011;60035;52.122;5.406;2022-11-20T06:26:43;14.80;;;7.13;;
72156;SDS011;60035;52.122;5.406;2022-11-20T06:29:10;16.13;;;7.00;;
72156;SDS011;60035;52.122;5.406;2022-11-20T06:31:39;15.32;;;7.07;;
72156;SDS011;60035;52.122;5.406;2022-11-20T06:34:09;15.60;;;7.53;;
72156;SDS011;60035;52.122;5.406;2022-11-20T06:36:35;17.85;;;7.68;;
72156;SDS011;60035;52.122;5.406;2022-11-20T06:39:02;16.38;;;6.88;;
72156;SDS011;60035;52.122;5.406;2022-11-20T06:41:29;16.92;;;7.03;;
72156;SDS011;60035;52.122;5.406;2022-11-20T06:43:55;15.73;;;7.28;;
72156;SDS011;60035;52.122;5.406;2022-11-20T06:46:22;17.98;;;8.73;;
72156;SDS011;60035;52.122;5.406;2022-11-20T06:48:49;15.63;;;7.07;;
72156;SDS011;60035;52.122;5.406;2022-11-20T06:51:16;16.52;;;7.57;;
72156;SDS011;60035;52.122;5.406;2022-11-20T06:53:43;16.27;;;7.75;;
72156;SDS011;60035;52.122;5.406;2022-11-20T06:56:09;15.88;;;7.45;;
72156;SDS011;60035;52.122;5.406;2022-11-20T06:58:36;15.80;;;7.72;;
72156;SDS011;60035;52.122;5.406;2022-11-20T07:01:07;15.45;;;6.93;;
72156;SDS011;60035;52.122;5.406;2022-11-20T07:03:37;17.90;;;7.30;;
72156;SDS011;60035;52.122;5.406;2022-11-20T07:06:03;15.15;;;7.45;;
72156;SDS011;60035;52.122;5.406;2022-11-20T07:08:31;19.40;;;7.72;;
72156;SDS011;60035;52.122;5.406;2022-11-20T07:11:02;17.77;;;8.02;;
72156;SDS011;60035;52.122;5.406;2022-11-20T07:13:30;20.08;;;8.13;;
72156;SDS011;60035;52.122;5.406;2022-11-20T07:16:03;16.95;;;7.30;;
72156;SDS011;60035;52.122;5.406;2022-11-20T07:18:31;19.10;;;7.43;;
72156;SDS011;60035;52.122;5.406;2022-11-20T07:21:01;15.70;;;7.47;;
72156;SDS011;60035;52.122;5.406;2022-11-20T07:23:29;18.20;;;8.45;;
72156;SDS011;60035;52.122;5.406;2022-11-20T07:25:55;16.98;;;7.80;;
72156;SDS011;60035;52.122;5.406;2022-11-20T07:28:22;18.33;;;7.22;;
72156;SDS011;60035;52.122;5.406;2022-11-20T07:30:52;16.27;;;7.60;;
72156;SDS011;60035;52.122;5.406;2022-11-20T07:33:19;16.77;;;6.75;;
72156;SDS011;60035;52.122;5.406;2022-11-20T07:35:46;18.05;;;8.25;;
72156;SDS011;60035;52.122;5.406;2022-11-20T07:38:12;14.50;;;6.95;;
72156;SDS011;60035;52.122;5.406;2022-11-20T07:40:39;17.45;;;7.45;;
72156;SDS011;60035;52.122;5.406;2022-11-20T07:43:05;17.20;;;7.72;;
72156;SDS011;60035;52.122;5.406;2022-11-20T07:45:32;19.02;;;8.70;;
72156;SDS011;60035;52.122;5.406;2022-11-20T07:47:58;24.15;;;9.30;;
72156;SDS011;60035;52.122;5.406;2022-11-20T07:50:25;20.85;;;9.23;;
72156;SDS011;60035;52.122;5.406;2022-11-20T07:52:52;26.05;;;11.68;;
72156;SDS011;60035;52.122;5.406;2022-11-20T07:55:18;22.08;;;10.57;;
72156;SDS011;60035;52.122;5.406;2022-11-20T07:57:45;18.35;;;7.70;;
72156;SDS011;60035;52.122;5.406;2022-11-20T08:00:11;17.60;;;7.57;;
72156;SDS011;60035;52.122;5.406;2022-11-20T08:02:39;17.50;;;7.97;;
72156;SDS011;60035;52.122;5.406;2022-11-20T08:05:07;21.88;;;9.27;;
72156;SDS011;60035;52.122;5.406;2022-11-20T08:07:37;17.17;;;8.20;;
72156;SDS011;60035;52.122;5.406;2022-11-20T08:10:09;18.83;;;9.35;;
72156;SDS011;60035;52.122;5.406;2022-11-20T08:12:43;19.75;;;10.23;;
72156;SDS011;60035;52.122;5.406;2022-11-20T08:15:32;21.13;;;10.38;;
72156;SDS011;60035;52.122;5.406;2022-11-20T08:18:00;21.30;;;10.07;;
72156;SDS011;60035;52.122;5.406;2022-11-20T08:20:53;22.75;;;10.43;;
72156;SDS011;60035;52.122;5.406;2022-11-20T08:23:19;26.90;;;9.82;;
72156;SDS011;60035;52.122;5.406;2022-11-20T08:25:49;23.50;;;11.52;;
72156;SDS011;60035;52.122;5.406;2022-11-20T08:28:16;24.45;;;11.30;;
72156;SDS011;60035;52.122;5.406;2022-11-20T08:30:47;22.35;;;9.60;;
72156;SDS011;60035;52.122;5.406;2022-11-20T08:33:13;21.75;;;10.27;;
72156;SDS011;60035;52.122;5.406;2022-11-20T08:35:49;24.02;;;9.43;;
72156;SDS011;60035;52.122;5.406;2022-11-20T08:38:16;23.33;;;10.52;;
72156;SDS011;60035;52.122;5.406;2022-11-20T08:40:43;23.63;;;11.27;;
72156;SDS011;60035;52.122;5.406;2022-11-20T08:43:32;20.80;;;9.85;;
72156;SDS011;60035;52.122;5.406;2022-11-20T08:45:58;25.60;;;11.48;;
72156;SDS011;60035;52.122;5.406;2022-11-20T08:48:25;24.83;;;11.27;;
72156;SDS011;60035;52.122;5.406;2022-11-20T08:50:51;21.58;;;9.02;;
72156;SDS011;60035;52.122;5.406;2022-11-20T08:53:17;22.90;;;10.90;;
72156;SDS011;60035;52.122;5.406;2022-11-20T08:55:44;25.23;;;14.13;;
72156;SDS011;60035;52.122;5.406;2022-11-20T08:58:10;22.83;;;10.95;;
72156;SDS011;60035;52.122;5.406;2022-11-20T09:00:37;24.25;;;10.80;;
72156;SDS011;60035;52.122;5.406;2022-11-20T09:03:03;28.48;;;11.00;;
72156;SDS011;60035;52.122;5.406;2022-11-20T09:05:30;22.60;;;11.55;;
72156;SDS011;60035;52.122;5.406;2022-11-20T09:07:57;22.73;;;10.70;;
72156;SDS011;60035;52.122;5.406;2022-11-20T09:10:24;21.60;;;10.15;;
72156;SDS011;60035;52.122;5.406;2022-11-20T09:12:54;22.88;;;10.95;;
72156;SDS011;60035;52.122;5.406;2022-11-20T09:15:24;28.70;;;11.63;;
72156;SDS011;60035;52.122;5.406;2022-11-20T09:20:18;21.38;;;10.68;;
72156;SDS011;60035;52.122;5.406;2022-11-20T09:22:45;20.17;;;10.25;;
72156;SDS011;60035;52.122;5.406;2022-11-20T09:25:12;22.38;;;10.52;;
72156;SDS011;60035;52.122;5.406;2022-11-20T09:27:38;25.83;;;11.63;;
72156;SDS011;60035;52.122;5.406;2022-11-20T09:30:07;21.30;;;10.48;;
72156;SDS011;60035;52.122;5.406;2022-11-20T09:32:34;29.92;;;12.18;;
72156;SDS011;60035;52.122;5.406;2022-11-20T09:35:00;30.45;;;12.18;;
72156;SDS011;60035;52.122;5.406;2022-11-20T09:37:27;23.20;;;11.65;;
72156;SDS011;60035;52.122;5.406;2022-11-20T09:39:54;26.75;;;13.23;;
72156;SDS011;60035;52.122;5.406;2022-11-20T09:42:32;25.98;;;11.63;;
72156;SDS011;60035;52.122;5.406;2022-11-20T09:50:36;25.80;;;11.75;;
72156;SDS011;60035;52.122;5.406;2022-11-20T09:53:12;27.17;;;12.57;;
72156;SDS011;60035;52.122;5.406;2022-11-20T09:55:45;26.50;;;11.65;;
72156;SDS011;60035;52.122;5.406;2022-11-20T09:58:15;24.83;;;12.00;;
72156;SDS011;60035;52.122;5.406;2022-11-20T10:00:52;23.67;;;10.93;;
72156;SDS011;60035;52.122;5.406;2022-11-20T10:03:26;22.90;;;10.88;;
72156;SDS011;60035;52.122;5.406;2022-11-20T10:06:03;24.65;;;11.57;;
72156;SDS011;60035;52.122;5.406;2022-11-20T10:08:42;23.60;;;11.40;;
72156;SDS011;60035;52.122;5.406;2022-11-20T10:20:05;28.42;;;14.73;;
72156;SDS011;60035;52.122;5.406;2022-11-20T10:25:24;31.70;;;14.52;;
72156;SDS011;60035;52.122;5.406;2022-11-20T10:31:04;26.17;;;12.57;;
72156;SDS011;60035;52.122;5.406;2022-11-20T10:33:39;31.50;;;12.75;;
72156;SDS011;60035;52.122;5.406;2022-11-20T10:36:30;26.45;;;12.70;;
72156;SDS011;60035;52.122;5.406;2022-11-20T10:39:06;24.08;;;11.77;;
72156;SDS011;60035;52.122;5.406;2022-11-20T10:41:55;25.92;;;13.07;;
72156;SDS011;60035;52.122;5.406;2022-11-20T10:44:26;25.77;;;12.27;;
72156;SDS011;60035;52.122;5.406;2022-11-20T10:47:13;25.40;;;12.02;;
72156;SDS011;60035;52.122;5.406;2022-11-20T10:49:42;26.50;;;13.05;;
72156;SDS011;60035;52.122;5.406;2022-11-20T10:58:01;26.55;;;13.32;;
72156;SDS011;60035;52.122;5.406;2022-11-20T11:00:33;26.35;;;12.05;;
72156;SDS011;60035;52.122;5.406;2022-11-20T11:03:00;28.40;;;12.50;;
72156;SDS011;60035;52.122;5.406;2022-11-20T11:07:56;30.73;;;13.77;;
72156;SDS011;60035;52.122;5.406;2022-11-20T11:10:28;28.42;;;13.60;;
72156;SDS011;60035;52.122;5.406;2022-11-20T11:17:56;29.75;;;14.07;;
72156;SDS011;60035;52.122;5.406;2022-11-20T11:20:23;27.48;;;13.70;;
72156;SDS011;60035;52.122;5.406;2022-11-20T11:22:55;28.40;;;12.82;;
72156;SDS011;60035;52.122;5.406;2022-11-20T11:25:25;28.45;;;13.63;;
72156;SDS011;60035;52.122;5.406;2022-11-20T11:27:53;28.65;;;13.15;;
72156;SDS011;60035;52.122;5.406;2022-11-20T11:30:22;29.35;;;15.00;;
72156;SDS011;60035;52.122;5.406;2022-11-20T11:32:50;32.20;;;14.65;;
72156;SDS011;60035;52.122;5.406;2022-11-20T11:37:48;34.58;;;15.65;;
72156;SDS011;60035;52.122;5.406;2022-11-20T11:40:15;28.88;;;13.48;;
72156;SDS011;60035;52.122;5.406;2022-11-20T11:42:57;31.00;;;14.60;;
72156;SDS011;60035;52.122;5.406;2022-11-20T11:45:30;31.63;;;15.02;;
72156;SDS011;60035;52.122;5.406;2022-11-20T11:48:00;32.45;;;14.15;;
72156;SDS011;60035;52.122;5.406;2022-11-20T11:50:29;29.88;;;14.48;;
72156;SDS011;60035;52.122;5.406;2022-11-20T11:53:07;30.98;;;14.68;;
72156;SDS011;60035;52.122;5.406;2022-11-20T11:56:02;31.23;;;14.70;;
72156;SDS011;60035;52.122;5.406;2022-11-20T11:58:50;35.15;;;15.68;;
72156;SDS011;60035;52.122;5.406;2022-11-20T12:04:02;38.35;;;15.85;;
72156;SDS011;60035;52.122;5.406;2022-11-20T12:06:39;32.65;;;13.80;;
72156;SDS011;60035;52.122;5.406;2022-11-20T12:11:45;32.30;;;15.10;;
72156;SDS011;60035;52.122;5.406;2022-11-20T12:14:18;30.75;;;14.20;;
72156;SDS011;60035;52.122;5.406;2022-11-20T12:16:50;34.20;;;16.90;;
72156;SDS011;60035;52.122;5.406;2022-11-20T12:19:19;35.40;;;16.48;;
72156;SDS011;60035;52.122;5.406;2022-11-20T12:27:31;45.95;;;23.88;;
72156;SDS011;60035;52.122;5.406;2022-11-20T12:30:04;33.03;;;16.58;;
72156;SDS011;60035;52.122;5.406;2022-11-20T12:35:27;32.05;;;15.85;;
72156;SDS011;60035;52.122;5.406;2022-11-20T12:43:39;28.93;;;13.70;;
72156;SDS011;60035;52.122;5.406;2022-11-20T12:46:47;32.13;;;15.02;;
72156;SDS011;60035;52.122;5.406;2022-11-20T12:54:48;30.38;;;14.90;;
72156;SDS011;60035;52.122;5.406;2022-11-20T13:00:22;30.38;;;14.07;;
72156;SDS011;60035;52.122;5.406;2022-11-20T13:08:33;30.92;;;14.00;;
72156;SDS011;60035;52.122;5.406;2022-11-20T13:19:30;32.50;;;14.82;;
72156;SDS011;60035;52.122;5.406;2022-11-20T13:21:58;33.67;;;15.93;;
72156;SDS011;60035;52.122;5.406;2022-11-20T13:24:26;36.83;;;17.75;;
72156;SDS011;60035;52.122;5.406;2022-11-20T13:27:03;31.77;;;15.27;;
72156;SDS011;60035;52.122;5.406;2022-11-20T13:29:34;32.75;;;15.55;;
72156;SDS011;60035;52.122;5.406;2022-11-20T13:34:33;30.95;;;15.52;;
72156;SDS011;60035;52.122;5.406;2022-11-20T13:37:02;37.22;;;16.90;;
72156;SDS011;60035;52.122;5.406;2022-11-20T13:39:31;32.15;;;14.57;;
72156;SDS011;60035;52.122;5.406;2022-11-20T13:42:00;32.60;;;14.52;;
72156;SDS011;60035;52.122;5.406;2022-11-20T13:45:00;33.97;;;14.55;;
72156;SDS011;60035;52.122;5.406;2022-11-20T13:47:29;34.53;;;16.30;;
72156;SDS011;60035;52.122;5.406;2022-11-20T13:49:57;34.38;;;14.88;;
72156;SDS011;60035;52.122;5.406;2022-11-20T14:00:19;34.88;;;16.20;;
72156;SDS011;60035;52.122;5.406;2022-11-20T14:05:39;34.78;;;15.15;;
72156;SDS011;60035;52.122;5.406;2022-11-20T14:08:17;36.22;;;16.65;;
72156;SDS011;60035;52.122;5.406;2022-11-20T14:13:57;37.20;;;18.42;;
72156;SDS011;60035;52.122;5.406;2022-11-20T14:16:26;36.05;;;16.27;;
72156;SDS011;60035;52.122;5.406;2022-11-20T14:18:56;40.28;;;19.55;;
72156;SDS011;60035;52.122;5.406;2022-11-20T14:21:25;37.10;;;17.42;;
72156;SDS011;60035;52.122;5.406;2022-11-20T14:24:02;34.13;;;16.20;;
72156;SDS011;60035;52.122;5.406;2022-11-20T14:26:44;37.05;;;15.07;;
72156;SDS011;60035;52.122;5.406;2022-11-20T14:29:24;34.35;;;15.50;;
72156;SDS011;60035;52.122;5.406;2022-11-20T14:32:01;38.33;;;15.38;;
72156;SDS011;60035;52.122;5.406;2022-11-20T14:34:30;40.53;;;16.38;;
72156;SDS011;60035;52.122;5.406;2022-11-20T14:37:01;38.20;;;15.65;;
72156;SDS011;60035;52.122;5.406;2022-11-20T14:39:33;32.35;;;15.20;;
72156;SDS011;60035;52.122;5.406;2022-11-20T14:42:03;34.88;;;14.52;;
72156;SDS011;60035;52.122;5.406;2022-11-20T14:44:43;33.08;;;16.33;;
72156;SDS011;60035;52.122;5.406;2022-11-20T14:47:17;33.67;;;15.13;;
72156;SDS011;60035;52.122;5.406;2022-11-20T14:49:51;36.08;;;14.77;;
72156;SDS011;60035;52.122;5.406;2022-11-20T14:54:57;31.73;;;14.73;;
72156;SDS011;60035;52.122;5.406;2022-11-20T15:02:51;39.85;;;15.68;;
72156;SDS011;60035;52.122;5.406;2022-11-20T15:05:25;35.13;;;14.68;;
72156;SDS011;60035;52.122;5.406;2022-11-20T15:08:20;34.30;;;14.88;;
72156;SDS011;60035;52.122;5.406;2022-11-20T15:11:02;36.28;;;15.80;;
72156;SDS011;60035;52.122;5.406;2022-11-20T15:13:43;34.72;;;16.17;;
72156;SDS011;60035;52.122;5.406;2022-11-20T15:16:17;35.80;;;15.10;;
72156;SDS011;60035;52.122;5.406;2022-11-20T15:18:45;37.67;;;16.67;;
72156;SDS011;60035;52.122;5.406;2022-11-20T15:21:14;40.13;;;18.50;;
72156;SDS011;60035;52.122;5.406;2022-11-20T15:23:42;39.42;;;15.02;;
72156;SDS011;60035;52.122;5.406;2022-11-20T15:26:10;42.90;;;17.75;;
72156;SDS011;60035;52.122;5.406;2022-11-20T15:28:46;35.42;;;16.42;;
72156;SDS011;60035;52.122;5.406;2022-11-20T15:31:15;39.85;;;15.45;;
72156;SDS011;60035;52.122;5.406;2022-11-20T15:33:43;35.97;;;16.15;;
72156;SDS011;60035;52.122;5.406;2022-11-20T15:36:10;38.90;;;16.60;;
72156;SDS011;60035;52.122;5.406;2022-11-20T15:38:37;38.97;;;17.50;;
72156;SDS011;60035;52.122;5.406;2022-11-20T15:41:03;41.65;;;17.38;;
72156;SDS011;60035;52.122;5.406;2022-11-20T15:43:30;38.58;;;17.90;;
72156;SDS011;60035;52.122;5.406;2022-11-20T15:46:03;35.67;;;16.02;;
72156;SDS011;60035;52.122;5.406;2022-11-20T15:48:37;42.25;;;18.65;;
72156;SDS011;60035;52.122;5.406;2022-11-20T15:53:47;50.05;;;23.33;;
72156;SDS011;60035;52.122;5.406;2022-11-20T15:56:14;42.20;;;20.70;;
72156;SDS011;60035;52.122;5.406;2022-11-20T15:58:41;36.40;;;17.05;;
72156;SDS011;60035;52.122;5.406;2022-11-20T16:01:11;35.42;;;14.75;;
72156;SDS011;60035;52.122;5.406;2022-11-20T16:03:40;42.05;;;16.75;;
72156;SDS011;60035;52.122;5.406;2022-11-20T16:06:07;34.33;;;16.48;;
72156;SDS011;60035;52.122;5.406;2022-11-20T16:08:34;32.58;;;15.75;;
72156;SDS011;60035;52.122;5.406;2022-11-20T16:11:00;39.33;;;18.30;;
72156;SDS011;60035;52.122;5.406;2022-11-20T16:13:27;33.63;;;14.38;;
72156;SDS011;60035;52.122;5.406;2022-11-20T16:19:03;34.75;;;16.52;;
72156;SDS011;60035;52.122;5.406;2022-11-20T16:21:30;33.38;;;15.38;;
72156;SDS011;60035;52.122;5.406;2022-11-20T16:24:01;34.92;;;16.05;;
72156;SDS011;60035;52.122;5.406;2022-11-20T16:26:30;36.42;;;16.48;;
72156;SDS011;60035;52.122;5.406;2022-11-20T16:29:06;33.00;;;14.57;;
72156;SDS011;60035;52.122;5.406;2022-11-20T16:31:33;38.33;;;16.55;;
72156;SDS011;60035;52.122;5.406;2022-11-20T16:34:01;38.72;;;17.35;;
72156;SDS011;60035;52.122;5.406;2022-11-20T16:36:38;37.33;;;17.58;;
72156;SDS011;60035;52.122;5.406;2022-11-20T16:39:06;37.30;;;16.45;;
72156;SDS011;60035;52.122;5.406;2022-11-20T16:41:32;35.17;;;16.75;;